Lidgerwood, North Dakota
Current Conditions -  °F | °C
As of 10:15 PM on Wednesday 26 Nov 2014 (Local Time) from KGWR Reporting Station
Clear Clear  
Wind Chill: -21°   Ceiling: Unl
Heat Index: -6°   Visibility: 10mi
Dew Point: -13°   Wind: 8mph
Humidity: 71%   Direction: 350°N
Pressure: 30.52"   Gusts: NA
Location:  46.08°N, 97.15°W
Report Text: KGWR 270415Z AUTO 35007KT 10SM CLR M21/M25 A3052 RMK A01 P000
Loading
Personal Weather Stations






























Interactive Weather Map New forecast layout! Learn more

10-Day Weather Forecast

Advertisements
Track Severe Weather on mobile